EWG84P EDDK-EDDM
Flight info
| Callsign | EWG84P |
|---|---|
| Flight time | 0h 43m |
| Altitude | 29000 |
| Route | EDDK1F BOMBI T104 HAREM/N0389F230 T104 ROKIL ROKIL1A |
| Aircraft | A320/M-SDE3FGHIRWY/LB1 |
Departure
| Time | 2026-05-01 11:02 |
|---|---|
| Airport | Cologne Bonn Airport (EDDK) |
Arrival
| Time | 2026-05-01 11:46 |
|---|---|
| Airport | Munich Airport (EDDM) |
| Time | Latitude | Longitude | Altitude | Speed | Heading |
|---|---|---|---|---|---|
| 2026-05-01 11:00 | 50.88039 | 7.12461 | 232 ft | 1 kts | 130° |
| 2026-05-01 11:00 | 50.88035 | 7.12471 | 232 ft | 2 kts | 126° |
| 2026-05-01 11:00 | 50.87992 | 7.12589 | 232 ft | 17 kts | 113° |
| 2026-05-01 11:00 | 50.87992 | 7.12744 | 238 ft | 12 kts | 73° |
| 2026-05-01 11:01 | 50.88006 | 7.12865 | 239 ft | 11 kts | 90° |
| 2026-05-01 11:01 | 50.87987 | 7.12987 | 239 ft | 12 kts | 120° |
| 2026-05-01 11:01 | 50.87944 | 7.13051 | 239 ft | 0 kts | 139° |
| 2026-05-01 11:02 | 50.87875 | 7.13147 | 239 ft | 48 kts | 137° |
| 2026-05-01 11:02 | 50.87414 | 7.13819 | 241 ft | 128 kts | 137° |
| 2026-05-01 11:02 | 50.86660 | 7.14908 | 722 ft | 147 kts | 137° |
| 2026-05-01 11:02 | 50.85894 | 7.16023 | 1641 ft | 150 kts | 137° |
| 2026-05-01 11:03 | 50.85084 | 7.17192 | 2238 ft | 168 kts | 138° |
| 2026-05-01 11:03 | 50.84164 | 7.18509 | 2600 ft | 189 kts | 138° |
| 2026-05-01 11:03 | 50.83118 | 7.20000 | 2926 ft | 215 kts | 138° |
| 2026-05-01 11:03 | 50.81949 | 7.21660 | 3451 ft | 234 kts | 139° |
| 2026-05-01 11:04 | 50.80815 | 7.23537 | 4343 ft | 239 kts | 129° |
| 2026-05-01 11:04 | 50.79804 | 7.25668 | 5198 ft | 246 kts | 129° |
| 2026-05-01 11:04 | 50.78771 | 7.27870 | 6068 ft | 252 kts | 128° |
| 2026-05-01 11:04 | 50.77725 | 7.30116 | 6939 ft | 257 kts | 128° |
| 2026-05-01 11:05 | 50.76655 | 7.32413 | 7748 ft | 261 kts | 128° |
| 2026-05-01 11:05 | 50.75566 | 7.34746 | 8540 ft | 266 kts | 127° |
| 2026-05-01 11:05 | 50.74462 | 7.37105 | 9388 ft | 269 kts | 127° |
| 2026-05-01 11:05 | 50.73342 | 7.39495 | 10212 ft | 272 kts | 127° |
| 2026-05-01 11:06 | 50.72208 | 7.41914 | 10745 ft | 287 kts | 127° |
| 2026-05-01 11:06 | 50.70971 | 7.44548 | 10989 ft | 310 kts | 127° |
| 2026-05-01 11:06 | 50.69660 | 7.47337 | 11522 ft | 321 kts | 127° |
| 2026-05-01 11:07 | 50.66946 | 7.53104 | 12870 ft | 332 kts | 126° |
| 2026-05-01 11:07 | 50.65554 | 7.56062 | 13518 ft | 338 kts | 126° |
| 2026-05-01 11:07 | 50.64150 | 7.59042 | 14257 ft | 340 kts | 126° |
| 2026-05-01 11:07 | 50.62732 | 7.62048 | 14873 ft | 344 kts | 126° |
| 2026-05-01 11:08 | 50.61305 | 7.65072 | 15534 ft | 346 kts | 126° |
| 2026-05-01 11:08 | 50.59868 | 7.68109 | 16216 ft | 348 kts | 126° |
| 2026-05-01 11:08 | 50.56932 | 7.74284 | 17406 ft | 356 kts | 126° |
| 2026-05-01 11:09 | 50.55434 | 7.77430 | 17941 ft | 361 kts | 126° |
| 2026-05-01 11:09 | 50.53927 | 7.80590 | 18626 ft | 362 kts | 126° |
| 2026-05-01 11:09 | 50.52410 | 7.83773 | 19130 ft | 365 kts | 126° |
| 2026-05-01 11:10 | 50.49357 | 7.90175 | 20184 ft | 371 kts | 126° |
| 2026-05-01 11:10 | 50.47796 | 7.93441 | 20629 ft | 375 kts | 126° |
| 2026-05-01 11:10 | 50.46217 | 7.96740 | 21057 ft | 380 kts | 126° |
| 2026-05-01 11:10 | 50.44620 | 8.00076 | 21530 ft | 384 kts | 126° |
| 2026-05-01 11:11 | 50.43013 | 8.03426 | 22038 ft | 387 kts | 125° |
| 2026-05-01 11:11 | 50.41388 | 8.06806 | 22529 ft | 388 kts | 125° |
| 2026-05-01 11:11 | 50.39758 | 8.10189 | 23050 ft | 391 kts | 126° |
| 2026-05-01 11:11 | 50.38109 | 8.13612 | 23438 ft | 395 kts | 125° |
| 2026-05-01 11:12 | 50.36467 | 8.17015 | 23869 ft | 399 kts | 126° |
| 2026-05-01 11:12 | 50.34779 | 8.20500 | 24229 ft | 402 kts | 125° |
| 2026-05-01 11:12 | 50.33065 | 8.24039 | 24642 ft | 404 kts | 126° |
| 2026-05-01 11:12 | 50.31386 | 8.27507 | 24990 ft | 407 kts | 125° |
| 2026-05-01 11:13 | 50.29669 | 8.31052 | 25361 ft | 410 kts | 125° |
| 2026-05-01 11:13 | 50.27939 | 8.34613 | 25663 ft | 414 kts | 124° |
| 2026-05-01 11:13 | 50.26191 | 8.38206 | 25992 ft | 417 kts | 126° |
| 2026-05-01 11:13 | 50.24426 | 8.41830 | 26312 ft | 420 kts | 126° |
| 2026-05-01 11:14 | 50.22647 | 8.45476 | 26674 ft | 423 kts | 125° |
| 2026-05-01 11:14 | 50.20857 | 8.49135 | 26994 ft | 426 kts | 124° |
| 2026-05-01 11:14 | 50.19057 | 8.52817 | 27344 ft | 428 kts | 125° |
| 2026-05-01 11:14 | 50.17247 | 8.56518 | 27673 ft | 431 kts | 125° |
| 2026-05-01 11:15 | 50.15419 | 8.60248 | 27995 ft | 434 kts | 126° |
| 2026-05-01 11:15 | 50.13580 | 8.63988 | 28313 ft | 436 kts | 126° |
| 2026-05-01 11:15 | 50.11722 | 8.67753 | 28635 ft | 439 kts | 125° |
| 2026-05-01 11:15 | 50.09851 | 8.71537 | 28945 ft | 442 kts | 126° |
| 2026-05-01 11:16 | 50.07969 | 8.75343 | 29240 ft | 445 kts | 126° |
| 2026-05-01 11:16 | 50.06069 | 8.79138 | 29365 ft | 443 kts | 129° |
| 2026-05-01 11:16 | 50.01704 | 8.85668 | 29374 ft | 431 kts | 136° |
| 2026-05-01 11:17 | 49.97277 | 8.91902 | 29374 ft | 429 kts | 136° |
| 2026-05-01 11:17 | 49.92883 | 8.98099 | 29371 ft | 430 kts | 135° |
| 2026-05-01 11:18 | 49.88462 | 9.04317 | 29360 ft | 429 kts | 136° |
| 2026-05-01 11:18 | 49.84059 | 9.10489 | 29374 ft | 429 kts | 135° |
| 2026-05-01 11:19 | 49.79637 | 9.16690 | 29381 ft | 429 kts | 135° |
| 2026-05-01 11:19 | 49.75211 | 9.22869 | 29373 ft | 428 kts | 136° |
| 2026-05-01 11:20 | 49.70786 | 9.29034 | 29378 ft | 427 kts | 136° |
| 2026-05-01 11:20 | 49.66392 | 9.35137 | 29366 ft | 427 kts | 135° |
| 2026-05-01 11:21 | 49.61980 | 9.41291 | 29369 ft | 426 kts | 132° |
| 2026-05-01 11:21 | 49.58061 | 9.48113 | 29366 ft | 425 kts | 128° |
| 2026-05-01 11:22 | 49.54157 | 9.54958 | 29379 ft | 424 kts | 129° |
| 2026-05-01 11:22 | 49.50252 | 9.61778 | 29381 ft | 424 kts | 129° |
| 2026-05-01 11:23 | 49.46379 | 9.68538 | 29379 ft | 424 kts | 129° |
| 2026-05-01 11:23 | 49.42477 | 9.75328 | 29383 ft | 424 kts | 129° |
| 2026-05-01 11:24 | 49.38572 | 9.82097 | 29384 ft | 423 kts | 130° |
| 2026-05-01 11:25 | 49.32694 | 9.92266 | 29382 ft | 424 kts | 129° |
| 2026-05-01 11:25 | 49.28778 | 9.99002 | 29209 ft | 420 kts | 129° |
| 2026-05-01 11:25 | 49.26858 | 10.02294 | 28939 ft | 418 kts | 130° |
| 2026-05-01 11:26 | 49.24927 | 10.05599 | 28661 ft | 415 kts | 130° |
| 2026-05-01 11:26 | 49.21110 | 10.12126 | 27832 ft | 406 kts | 129° |
| 2026-05-01 11:26 | 49.19240 | 10.15324 | 27348 ft | 402 kts | 129° |
| 2026-05-01 11:27 | 49.18000 | 10.17441 | 27018 ft | 399 kts | 129° |
| 2026-05-01 11:27 | 49.16157 | 10.20586 | 26530 ft | 395 kts | 130° |
| 2026-05-01 11:27 | 49.14328 | 10.23709 | 26065 ft | 391 kts | 129° |
| 2026-05-01 11:27 | 49.12502 | 10.26772 | 25604 ft | 388 kts | 130° |
| 2026-05-01 11:28 | 49.10659 | 10.29771 | 25163 ft | 385 kts | 131° |
| 2026-05-01 11:28 | 49.08819 | 10.32715 | 24714 ft | 381 kts | 131° |
| 2026-05-01 11:28 | 49.06990 | 10.35619 | 24264 ft | 378 kts | 131° |
| 2026-05-01 11:29 | 49.03374 | 10.41355 | 23312 ft | 371 kts | 130° |
| 2026-05-01 11:29 | 49.01601 | 10.44176 | 22884 ft | 367 kts | 131° |
| 2026-05-01 11:29 | 48.98105 | 10.49759 | 22010 ft | 360 kts | 131° |
| 2026-05-01 11:30 | 48.96404 | 10.52476 | 21568 ft | 358 kts | 131° |
| 2026-05-01 11:30 | 48.94695 | 10.55204 | 21118 ft | 356 kts | 130° |
| 2026-05-01 11:30 | 48.92994 | 10.57923 | 20677 ft | 353 kts | 131° |
| 2026-05-01 11:30 | 48.91304 | 10.60619 | 20221 ft | 352 kts | 131° |
| 2026-05-01 11:31 | 48.89617 | 10.63302 | 19775 ft | 350 kts | 131° |
| 2026-05-01 11:31 | 48.87931 | 10.65976 | 19324 ft | 349 kts | 130° |
| 2026-05-01 11:31 | 48.86253 | 10.68632 | 18876 ft | 348 kts | 131° |
| 2026-05-01 11:31 | 48.84574 | 10.71288 | 18382 ft | 347 kts | 131° |
| 2026-05-01 11:32 | 48.82907 | 10.73920 | 18088 ft | 340 kts | 131° |
| 2026-05-01 11:32 | 48.81289 | 10.76471 | 17742 ft | 335 kts | 131° |
| 2026-05-01 11:32 | 48.79670 | 10.79026 | 17244 ft | 336 kts | 131° |
| 2026-05-01 11:32 | 48.78053 | 10.81578 | 16807 ft | 334 kts | 131° |
| 2026-05-01 11:33 | 48.76440 | 10.84117 | 16376 ft | 333 kts | 131° |
| 2026-05-01 11:33 | 48.74837 | 10.86631 | 15946 ft | 332 kts | 131° |
| 2026-05-01 11:33 | 48.73231 | 10.89145 | 15522 ft | 331 kts | 131° |
| 2026-05-01 11:33 | 48.71633 | 10.91647 | 15099 ft | 330 kts | 131° |
| 2026-05-01 11:34 | 48.70032 | 10.94146 | 14682 ft | 330 kts | 131° |
| 2026-05-01 11:34 | 48.68451 | 10.96604 | 14392 ft | 322 kts | 131° |
| 2026-05-01 11:34 | 48.66896 | 10.99024 | 13809 ft | 326 kts | 131° |
| 2026-05-01 11:34 | 48.65316 | 11.01486 | 13365 ft | 325 kts | 130° |
| 2026-05-01 11:35 | 48.63744 | 11.03930 | 12933 ft | 324 kts | 132° |
| 2026-05-01 11:35 | 48.62170 | 11.06370 | 12496 ft | 323 kts | 132° |
| 2026-05-01 11:35 | 48.60604 | 11.08794 | 12056 ft | 322 kts | 131° |
| 2026-05-01 11:35 | 48.59041 | 11.11217 | 11620 ft | 321 kts | 131° |
| 2026-05-01 11:36 | 48.57483 | 11.13636 | 11177 ft | 320 kts | 133° |
| 2026-05-01 11:36 | 48.55934 | 11.16044 | 10730 ft | 319 kts | 132° |
| 2026-05-01 11:36 | 48.54421 | 11.18392 | 10546 ft | 301 kts | 132° |
| 2026-05-01 11:36 | 48.52998 | 11.20595 | 10299 ft | 287 kts | 132° |
| 2026-05-01 11:37 | 48.51627 | 11.22719 | 10051 ft | 279 kts | 132° |
| 2026-05-01 11:37 | 48.50259 | 11.24797 | 9693 ft | 281 kts | 135° |
| 2026-05-01 11:37 | 48.48807 | 11.26727 | 9213 ft | 284 kts | 138° |
| 2026-05-01 11:37 | 48.47311 | 11.28609 | 8973 ft | 276 kts | 139° |
| 2026-05-01 11:38 | 48.45837 | 11.30427 | 8354 ft | 272 kts | 138° |
| 2026-05-01 11:38 | 48.44376 | 11.32224 | 7731 ft | 269 kts | 137° |
| 2026-05-01 11:38 | 48.42938 | 11.34001 | 7144 ft | 266 kts | 139° |
| 2026-05-01 11:38 | 48.41512 | 11.35772 | 6477 ft | 265 kts | 139° |
| 2026-05-01 11:39 | 48.40102 | 11.37525 | 5870 ft | 260 kts | 138° |
| 2026-05-01 11:39 | 48.38745 | 11.39209 | 5600 ft | 243 kts | 139° |
| 2026-05-01 11:39 | 48.37490 | 11.40766 | 5457 ft | 224 kts | 139° |
| 2026-05-01 11:39 | 48.36333 | 11.42206 | 5365 ft | 209 kts | 139° |
| 2026-05-01 11:40 | 48.35224 | 11.43586 | 5279 ft | 205 kts | 137° |
| 2026-05-01 11:40 | 48.34326 | 11.45189 | 5193 ft | 198 kts | 115° |
| 2026-05-01 11:40 | 48.33979 | 11.47132 | 5088 ft | 191 kts | 92° |
| 2026-05-01 11:40 | 48.34091 | 11.49087 | 5030 ft | 182 kts | 84° |
| 2026-05-01 11:41 | 48.34238 | 11.50879 | 4889 ft | 168 kts | 84° |
| 2026-05-01 11:41 | 48.34375 | 11.52575 | 4663 ft | 158 kts | 85° |
| 2026-05-01 11:41 | 48.34502 | 11.54176 | 4462 ft | 153 kts | 85° |
| 2026-05-01 11:41 | 48.34630 | 11.55775 | 4272 ft | 153 kts | 84° |
| 2026-05-01 11:42 | 48.34754 | 11.57345 | 4051 ft | 151 kts | 84° |
| 2026-05-01 11:42 | 48.34878 | 11.58919 | 3877 ft | 152 kts | 84° |
| 2026-05-01 11:42 | 48.35003 | 11.60491 | 3663 ft | 152 kts | 84° |
| 2026-05-01 11:42 | 48.35127 | 11.62065 | 3450 ft | 152 kts | 84° |
| 2026-05-01 11:43 | 48.35251 | 11.63632 | 3261 ft | 150 kts | 84° |
| 2026-05-01 11:43 | 48.35371 | 11.65154 | 3051 ft | 147 kts | 84° |
| 2026-05-01 11:43 | 48.35490 | 11.66678 | 2849 ft | 144 kts | 85° |
| 2026-05-01 11:44 | 48.35717 | 11.69680 | 2456 ft | 143 kts | 83° |
| 2026-05-01 11:44 | 48.35830 | 11.71146 | 2264 ft | 141 kts | 81° |
| 2026-05-01 11:44 | 48.35958 | 11.72645 | 2074 ft | 144 kts | 85° |
| 2026-05-01 11:44 | 48.36073 | 11.74127 | 1871 ft | 143 kts | 84° |
| 2026-05-01 11:45 | 48.36181 | 11.75605 | 1689 ft | 143 kts | 82° |
| 2026-05-01 11:45 | 48.36299 | 11.77079 | 1513 ft | 142 kts | 84° |
| 2026-05-01 11:45 | 48.36404 | 11.78417 | 1485 ft | 109 kts | 83° |
| 2026-05-01 11:45 | 48.36468 | 11.79285 | 1477 ft | 59 kts | 83° |
| 2026-05-01 11:46 | 48.36502 | 11.79700 | 1483 ft | 22 kts | 84° |
| 2026-05-01 11:46 | 48.36503 | 11.79945 | 1482 ft | 31 kts | 96° |
| 2026-05-01 11:46 | 48.36426 | 11.80278 | 1478 ft | 31 kts | 115° |
| 2026-05-01 11:46 | 48.36364 | 11.80475 | 1473 ft | 13 kts | 116° |
| 2026-05-01 11:47 | 48.36294 | 11.80499 | 1481 ft | 12 kts | 245° |
| 2026-05-01 11:47 | 48.36288 | 11.80374 | 1485 ft | 11 kts | 265° |
| 2026-05-01 11:47 | 48.36272 | 11.80171 | 1482 ft | 31 kts | 263° |
| 2026-05-01 11:47 | 48.36245 | 11.79852 | 1485 ft | 30 kts | 262° |
| 2026-05-01 11:48 | 48.36220 | 11.79554 | 1478 ft | 22 kts | 263° |
| 2026-05-01 11:48 | 48.36165 | 11.79464 | 1475 ft | 12 kts | 177° |
| 2026-05-01 11:48 | 48.36084 | 11.79480 | 1482 ft | 12 kts | 173° |
| 2026-05-01 11:48 | 48.36031 | 11.79489 | 1487 ft | 0 kts | 173° |
| 2026-05-01 11:49 | 48.35949 | 11.79504 | 1486 ft | 383 kts | 173° |
| 2026-05-01 11:49 | 48.35941 | 11.79506 | 1478 ft | 0 kts | 171° |
| 2026-05-01 11:50 | 48.35884 | 11.79516 | 1474 ft | 17 kts | 174° |
| 2026-05-01 11:50 | 48.35783 | 11.79531 | 1473 ft | 7 kts | 174° |
| 2026-05-01 11:51 | 48.35743 | 11.79537 | 1479 ft | 5 kts | 174° |
| 2026-05-01 11:51 | 48.35716 | 11.79511 | 1475 ft | 7 kts | 236° |
| 2026-05-01 11:51 | 48.35687 | 11.79401 | 1478 ft | 11 kts | 231° |
| 2026-05-01 11:51 | 48.35624 | 11.79396 | 1482 ft | 3 kts | 174° |
| 2026-05-01 11:52 | 48.35605 | 11.79381 | 1482 ft | 6 kts | 229° |
| 2026-05-01 11:52 | 48.35596 | 11.79278 | 1485 ft | 10 kts | 263° |
| 2026-05-01 11:52 | 48.35594 | 11.79262 | 1485 ft | 0 kts | 262° |